Terminal Aerodrome Forecast
Issued by NWS

Home | Current Version | Previous Version | Text Only | Print | Product List | Glossary Off
Versions: 1 2 3 4 5 6 7 8 9 10 11 12 13 14

000
FTUS43 KGRB 211727
TAFMTW
TAF
KMTW 211727Z 2118/2218 27012G20KT P6SM SCT100
      TEMPO 2121/2201 -SHRA BKN100
     FM220100 02008KT P6SM VCSH SCT100
     FM220400 02005KT P6SM SKC
     FM220800 34004KT P6SM SKC
     FM221500 04007KT P6SM SKC=

USA.gov is the U.S. government's official web portal to all federal, state and local government web resources and services.